createdAt,value
2023-01-26T00:01:23.696Z,102867.22
2023-01-26T00:03:50.837Z,102866.44
2023-01-26T00:06:19.617Z,102877.41
2023-01-26T00:08:48.452Z,102868.84
2023-01-26T00:11:17.874Z,102880.91
2023-01-26T00:13:44.536Z,102896.28
2023-01-26T00:16:15.405Z,102897.94
2023-01-26T00:18:43.542Z,102901.00
2023-01-26T00:21:15.918Z,102882.06
2023-01-26T00:23:42.716Z,102874.06
2023-01-26T00:26:11.027Z,102873.50
2023-01-26T00:28:37.752Z,102862.19
2023-01-26T00:31:06.513Z,102862.47
2023-01-26T00:33:33.265Z,102858.88
2023-01-26T00:36:00.237Z,102860.56
2023-01-26T00:38:27.135Z,102855.28
2023-01-26T00:40:54.155Z,102845.66
2023-01-26T00:43:20.846Z,102848.16
2023-01-26T00:45:48.448Z,102863.53
2023-01-26T00:48:15.400Z,102867.13
2023-01-26T00:50:42.050Z,102865.47
2023-01-26T00:53:09.224Z,102861.91
2023-01-26T00:55:35.972Z,102859.16
2023-01-26T00:58:07.348Z,102871.47
2023-01-26T01:00:36.448Z,102867.88
2023-01-26T01:03:03.934Z,102855.00
2023-01-26T01:05:32.314Z,102840.44
2023-01-26T01:07:59.467Z,102828.91
2023-01-26T01:10:28.861Z,102820.06
2023-01-26T01:12:56.683Z,102830.25
2023-01-26T01:15:24.377Z,102827.72
2023-01-26T01:17:51.130Z,102822.00
2023-01-26T01:20:17.863Z,102830.81
2023-01-26T01:22:44.531Z,102837.69
2023-01-26T01:25:11.245Z,102835.00
2023-01-26T01:27:37.973Z,102829.25
2023-01-26T01:30:08.096Z,102829.00
2023-01-26T01:32:36.134Z,102832.31
2023-01-26T01:35:03.073Z,102852.69
2023-01-26T01:37:30.407Z,102857.09
2023-01-26T01:39:57.036Z,102849.41
2023-01-26T01:42:23.938Z,102848.59
2023-01-26T01:45:21.457Z,102853.56
2023-01-26T01:47:48.131Z,102852.75
2023-01-26T01:50:18.458Z,102841.50
2023-01-26T01:52:45.773Z,102834.09
2023-01-26T01:55:14.921Z,102834.94
2023-01-26T01:57:46.377Z,102825.28
2023-01-26T02:00:16.590Z,102819.81
2023-01-26T02:02:45.145Z,102822.78
2023-01-26T02:05:27.055Z,102826.38
2023-01-26T02:07:55.084Z,102837.09
2023-01-26T02:10:22.131Z,102843.16
2023-01-26T02:12:56.746Z,102849.72
2023-01-26T02:15:23.877Z,102842.06
2023-01-26T02:17:54.798Z,102853.88
2023-01-26T02:20:33.592Z,102848.38
2023-01-26T02:23:00.159Z,102861.03
2023-01-26T02:25:42.689Z,102850.91
2023-01-26T02:28:09.221Z,102849.22
2023-01-26T02:30:35.982Z,102833.59
2023-01-26T02:33:02.635Z,102839.91
2023-01-26T02:35:29.296Z,102858.03
2023-01-26T02:37:55.956Z,102857.19
2023-01-26T02:40:48.546Z,102866.03
2023-01-26T02:43:15.439Z,102864.91
2023-01-26T02:45:43.410Z,102869.34
2023-01-26T02:48:10.011Z,102863.84
2023-01-26T02:50:36.679Z,102860.00
2023-01-26T02:53:04.283Z,102861.66
2023-01-26T02:55:31.155Z,102864.97
2023-01-26T02:58:03.514Z,102865.81
2023-01-26T03:00:42.132Z,102861.41
2023-01-26T03:03:15.080Z,102853.97
2023-01-26T03:05:42.521Z,102847.69
2023-01-26T03:08:09.173Z,102857.84
2023-01-26T03:10:35.847Z,102859.47
2023-01-26T03:13:03.157Z,102851.84
2023-01-26T03:15:43.378Z,102865.81
2023-01-26T03:18:32.866Z,102879.81
2023-01-26T03:21:20.369Z,102867.16
2023-01-26T03:24:05.815Z,102872.66
2023-01-26T03:26:51.060Z,102875.38
2023-01-26T03:29:17.868Z,102877.06
2023-01-26T03:31:44.661Z,102867.97
2023-01-26T03:34:11.652Z,102866.06
2023-01-26T03:36:38.288Z,102864.97
2023-01-26T03:39:05.944Z,102860.31
2023-01-26T03:41:50.916Z,102859.47
2023-01-26T03:44:35.900Z,102867.72
2023-01-26T03:47:20.785Z,102870.47
2023-01-26T03:50:06.230Z,102870.22
2023-01-26T03:52:51.736Z,102865.56
2023-01-26T03:55:37.250Z,102862.81
2023-01-26T03:58:03.951Z,102863.91
2023-01-26T04:00:30.679Z,102869.13
2023-01-26T04:03:16.032Z,102869.94
2023-01-26T04:06:16.173Z,102862.53
2023-01-26T04:08:44.820Z,102858.72
2023-01-26T04:11:11.539Z,102864.78
2023-01-26T04:13:56.802Z,102874.94
2023-01-26T04:16:42.358Z,102874.66
2023-01-26T04:19:27.950Z,102871.09
2023-01-26T04:21:54.637Z,102875.25
2023-01-26T04:24:22.646Z,102877.16
2023-01-26T04:26:49.476Z,102881.59
2023-01-26T04:29:17.054Z,102881.59
2023-01-26T04:31:44.223Z,102882.38
2023-01-26T04:34:14.099Z,102870.59
2023-01-26T04:36:42.045Z,102866.41
2023-01-26T04:39:09.710Z,102864.47
2023-01-26T04:41:36.404Z,102868.22
2023-01-26T04:44:03.131Z,102876.69
2023-01-26T04:46:30.000Z,102882.34
2023-01-26T04:48:56.779Z,102885.03
2023-01-26T04:51:24.152Z,102883.91
2023-01-26T04:53:51.483Z,102893.16
2023-01-26T04:56:22.723Z,102895.84
2023-01-26T04:58:49.389Z,102901.84
2023-01-26T05:01:16.519Z,102902.63
2023-01-26T05:03:43.250Z,102896.78
2023-01-26T05:06:10.050Z,102892.91
2023-01-26T05:08:37.308Z,102895.88
2023-01-26T05:11:04.446Z,102894.47
2023-01-26T05:13:31.338Z,102890.59
2023-01-26T05:15:57.970Z,102894.69
2023-01-26T05:18:24.609Z,102894.34
2023-01-26T05:20:51.280Z,102902.00
2023-01-26T05:23:17.986Z,102899.78
2023-01-26T05:25:44.601Z,102903.00
2023-01-26T05:28:11.294Z,102899.69
2023-01-26T05:30:38.010Z,102895.78
2023-01-26T05:33:07.147Z,102884.00
2023-01-26T05:35:34.587Z,102883.16
2023-01-26T05:38:01.472Z,102878.75
2023-01-26T05:40:28.535Z,102884.50
2023-01-26T05:42:55.404Z,102880.34
2023-01-26T05:45:22.088Z,102886.91
2023-01-26T05:47:48.800Z,102897.03
2023-01-26T05:50:15.849Z,102887.97
2023-01-26T05:52:44.142Z,102891.56
2023-01-26T05:55:10.804Z,102899.78
2023-01-26T05:57:37.460Z,102892.41
2023-01-26T06:00:05.782Z,102902.78
2023-01-26T06:02:32.562Z,102901.13
2023-01-26T06:04:59.222Z,102906.03
2023-01-26T06:07:26.490Z,102912.59
2023-01-26T06:09:53.416Z,102908.22
2023-01-26T06:12:22.159Z,102904.63
2023-01-26T06:14:49.072Z,102914.53
2023-01-26T06:17:17.297Z,102913.69
2023-01-26T06:19:44.614Z,102907.94
2023-01-26T06:22:12.617Z,102917.00
2023-01-26T06:24:39.249Z,102922.75
2023-01-26T06:27:08.870Z,102922.16
2023-01-26T06:29:35.547Z,102918.84
2023-01-26T06:32:02.174Z,102913.34
2023-01-26T06:34:28.881Z,102921.31
2023-01-26T06:36:56.493Z,102915.81
2023-01-26T06:39:23.146Z,102924.06
2023-01-26T06:41:49.787Z,102916.66
2023-01-26T06:44:16.458Z,102926.31
2023-01-26T06:46:43.056Z,102924.16
2023-01-26T06:49:10.049Z,102932.38
2023-01-26T06:51:57.336Z,102931.84
2023-01-26T06:54:24.069Z,102922.81
2023-01-26T06:56:50.725Z,102915.41
2023-01-26T06:59:17.367Z,102925.31
2023-01-26T07:01:47.352Z,102924.47
2023-01-26T07:04:14.361Z,102937.59
2023-01-26T07:06:41.081Z,102941.19
2023-01-26T07:09:08.110Z,102933.81
2023-01-26T07:11:34.740Z,102934.03
2023-01-26T07:14:01.646Z,102948.84
2023-01-26T07:16:28.478Z,102948.84
2023-01-26T07:18:55.892Z,102952.38
2023-01-26T07:21:23.328Z,102954.06
2023-01-26T07:23:51.996Z,102951.06
2023-01-26T07:26:19.110Z,102956.31
2023-01-26T07:28:45.829Z,102958.78
2023-01-26T07:31:12.924Z,102955.81
2023-01-26T07:33:39.946Z,102952.22
2023-01-26T07:36:07.451Z,102965.13
2023-01-26T07:38:34.569Z,102962.38
2023-01-26T07:41:06.660Z,102954.13
2023-01-26T07:43:35.301Z,102958.78
2023-01-26T07:46:02.011Z,102954.41
2023-01-26T07:48:29.952Z,102953.31
2023-01-26T07:51:00.997Z,102955.47
2023-01-26T07:53:29.373Z,102953.00
2023-01-26T07:56:06.578Z,102954.91
2023-01-26T07:58:35.631Z,102962.56
2023-01-26T08:01:20.997Z,102959.22
2023-01-26T08:03:50.712Z,102960.31
2023-01-26T08:06:18.619Z,102952.56
2023-01-26T08:08:53.982Z,102964.03
2023-01-26T08:11:22.860Z,102953.34
2023-01-26T08:13:51.772Z,102956.31
2023-01-26T08:16:18.813Z,102949.69
2023-01-26T08:18:47.039Z,102952.91
2023-01-26T08:21:15.518Z,102947.66
2023-01-26T08:23:42.610Z,102948.41
2023-01-26T08:26:12.666Z,102956.06
2023-01-26T08:28:40.107Z,102954.38
2023-01-26T08:31:20.059Z,102959.56
2023-01-26T08:33:50.828Z,102961.44
2023-01-26T08:36:21.830Z,102962.53
2023-01-26T08:38:49.149Z,102951.22
2023-01-26T08:41:15.888Z,102954.22
2023-01-26T08:43:42.731Z,102960.19
2023-01-26T08:46:10.012Z,102967.81
2023-01-26T08:48:37.483Z,102974.16
2023-01-26T08:51:06.054Z,102976.63
2023-01-26T08:53:34.207Z,102981.34
2023-01-26T08:56:06.168Z,102977.63
2023-01-26T08:58:33.856Z,102976.88
2023-01-26T09:01:08.512Z,102966.84
2023-01-26T09:03:35.613Z,102960.03
2023-01-26T09:06:04.450Z,102984.47
2023-01-26T09:08:32.338Z,102990.78
2023-01-26T09:10:59.310Z,102986.97
2023-01-26T09:13:26.078Z,102988.84
2023-01-26T09:15:52.815Z,102991.59
2023-01-26T09:18:20.594Z,102995.19
2023-01-26T09:20:47.312Z,102986.72
2023-01-26T09:23:16.375Z,102996.59
2023-01-26T09:25:43.036Z,102998.09
2023-01-26T09:28:09.653Z,102992.72
2023-01-26T09:30:36.444Z,102989.44
2023-01-26T09:33:05.064Z,102994.44
2023-01-26T09:35:31.721Z,102998.38
2023-01-26T09:37:58.336Z,103002.25
2023-01-26T09:40:42.110Z,102995.78
2023-01-26T09:43:23.711Z,103003.59
2023-01-26T09:46:18.259Z,103009.22
2023-01-26T09:49:13.819Z,103019.63
2023-01-26T09:51:47.936Z,103026.09
2023-01-26T09:54:33.027Z,103018.00
2023-01-26T09:57:10.955Z,103022.47
2023-01-26T09:59:44.630Z,103025.28
2023-01-26T10:02:11.341Z,103024.25
2023-01-26T10:04:42.572Z,103021.56
2023-01-26T10:07:12.367Z,103025.50
2023-01-26T10:09:41.711Z,103027.72
2023-01-26T10:12:17.235Z,103030.47
2023-01-26T10:15:03.012Z,103033.78
2023-01-26T10:17:37.013Z,103031.59
2023-01-26T10:20:20.342Z,103033.22
2023-01-26T10:22:51.984Z,103036.72
2023-01-26T10:25:27.916Z,103029.75
2023-01-26T10:27:54.722Z,103037.09
2023-01-26T10:30:22.146Z,103035.38
2023-01-26T10:32:52.463Z,103045.19
2023-01-26T10:35:24.461Z,103039.97
2023-01-26T10:37:53.243Z,103034.47
2023-01-26T10:40:20.721Z,103028.97
2023-01-26T10:42:59.492Z,103035.81
2023-01-26T10:45:31.905Z,103040.47
2023-01-26T10:48:20.285Z,103050.09
2023-01-26T10:50:48.117Z,103043.53
2023-01-26T10:53:19.105Z,103046.34
2023-01-26T10:55:58.453Z,103045.31
2023-01-26T10:58:55.487Z,103045.72
2023-01-26T11:01:23.319Z,103048.53
2023-01-26T11:04:05.916Z,103049.69
2023-01-26T11:06:32.824Z,103048.88
2023-01-26T11:09:14.722Z,103062.88
2023-01-26T11:11:42.185Z,103066.69
2023-01-26T11:14:15.587Z,103062.66
2023-01-26T11:16:50.249Z,103059.81
2023-01-26T11:19:42.598Z,103060.63
2023-01-26T11:22:13.480Z,103060.31
2023-01-26T11:24:50.845Z,103067.06
2023-01-26T11:27:52.914Z,103069.97
2023-01-26T11:30:42.613Z,103073.59
2023-01-26T11:33:40.296Z,103072.84
2023-01-26T11:36:23.625Z,103068.97
2023-01-26T11:39:14.964Z,103061.28
2023-01-26T11:41:47.657Z,103063.53
2023-01-26T11:44:42.658Z,103056.09
2023-01-26T11:47:27.933Z,103065.19
2023-01-26T11:50:16.202Z,103061.06
2023-01-26T11:53:10.369Z,103053.63
2023-01-26T11:56:10.846Z,103040.16
2023-01-26T11:58:55.985Z,103038.28
2023-01-26T12:01:29.088Z,103042.19
2023-01-26T12:03:56.661Z,103040.56
2023-01-26T12:06:38.052Z,103032.94
2023-01-26T12:09:23.367Z,103041.78
2023-01-26T12:12:13.235Z,103025.00
2023-01-26T12:15:06.177Z,103018.72
2023-01-26T12:18:03.885Z,103021.75
2023-01-26T12:20:40.169Z,103026.47
2023-01-26T12:23:09.696Z,103016.59
2023-01-26T12:25:39.597Z,103017.69
2023-01-26T12:28:29.303Z,103018.00
2023-01-26T12:31:11.190Z,103018.00
2023-01-26T12:33:39.311Z,103022.44
2023-01-26T12:36:11.808Z,103023.25
2023-01-26T12:39:12.453Z,103019.16
2023-01-26T12:41:39.046Z,103015.56
2023-01-26T12:44:05.842Z,103008.38
2023-01-26T12:46:39.298Z,103010.88
2023-01-26T12:49:24.513Z,103009.22
2023-01-26T12:51:59.343Z,103002.63
2023-01-26T12:54:44.404Z,102997.38
2023-01-26T12:57:22.695Z,102992.72
2023-01-26T12:59:50.054Z,102987.22
2023-01-26T13:02:16.854Z,102990.81
2023-01-26T13:04:47.145Z,102981.72
2023-01-26T13:07:47.742Z,102977.34
2023-01-26T13:10:14.967Z,102983.13
2023-01-26T13:13:01.192Z,102965.81
2023-01-26T13:15:31.219Z,102968.28
2023-01-26T13:18:03.678Z,102969.13
2023-01-26T13:20:48.415Z,102957.59
2023-01-26T13:23:36.744Z,102950.94
2023-01-26T13:26:26.045Z,102944.63
2023-01-26T13:28:55.133Z,102952.91
2023-01-26T13:31:33.815Z,102946.84
2023-01-26T13:34:06.229Z,102943.56
2023-01-26T13:36:36.384Z,102961.22
2023-01-26T13:39:14.428Z,102951.84
2023-01-26T13:41:47.097Z,102942.50
2023-01-26T13:44:38.307Z,102950.53
2023-01-26T13:47:28.601Z,102941.41
2023-01-26T13:49:55.184Z,102937.84
2023-01-26T13:52:25.606Z,102936.75
2023-01-26T13:54:54.306Z,102934.00
2023-01-26T13:57:27.747Z,102935.94
2023-01-26T13:59:59.258Z,102930.97
2023-01-26T14:02:34.834Z,102918.84
2023-01-26T14:05:02.675Z,102929.34
2023-01-26T14:07:42.720Z,102918.03
2023-01-26T14:10:18.574Z,102918.84
2023-01-26T14:12:58.898Z,102902.03
2023-01-26T14:15:30.598Z,102912.22
2023-01-26T14:18:02.538Z,102907.84
2023-01-26T14:20:38.054Z,102909.53
2023-01-26T14:23:07.831Z,102910.59
2023-01-26T14:25:34.865Z,102910.34
2023-01-26T14:28:01.611Z,102909.47
2023-01-26T14:30:31.406Z,102915.00
2023-01-26T14:33:13.998Z,102910.03
2023-01-26T14:35:42.255Z,102916.13
2023-01-26T14:38:11.839Z,102915.88
2023-01-26T14:40:52.215Z,102924.13
2023-01-26T14:43:19.957Z,102924.94
2023-01-26T14:45:58.014Z,102925.50
2023-01-26T14:48:33.078Z,102922.75
2023-01-26T14:51:02.428Z,102911.16
2023-01-26T14:53:29.172Z,102920.53
2023-01-26T14:55:55.883Z,102916.13
2023-01-26T14:58:29.507Z,102928.28
2023-01-26T15:00:58.831Z,102917.22
2023-01-26T15:03:33.679Z,102906.72
2023-01-26T15:06:17.270Z,102919.69
2023-01-26T15:09:00.449Z,102917.22
2023-01-26T15:11:54.652Z,102913.34
2023-01-26T15:14:37.662Z,102911.94
2023-01-26T15:17:05.972Z,102913.03
2023-01-26T15:19:39.870Z,102908.91
2023-01-26T15:22:19.823Z,102914.94
2023-01-26T15:24:58.843Z,102902.81
2023-01-26T15:27:31.008Z,102901.41
2023-01-26T15:29:59.846Z,102901.94
2023-01-26T15:32:32.463Z,102903.25
2023-01-26T15:35:18.896Z,102909.59
2023-01-26T15:37:45.982Z,102909.56
2023-01-26T15:40:15.354Z,102902.38
2023-01-26T15:42:42.277Z,102910.38
2023-01-26T15:45:23.651Z,102900.16
2023-01-26T15:47:50.547Z,102897.13
2023-01-26T15:50:27.293Z,102875.88
2023-01-26T15:52:55.055Z,102887.44
2023-01-26T15:55:26.623Z,102884.94
2023-01-26T15:57:53.313Z,102888.81
2023-01-26T16:00:20.213Z,102901.47
2023-01-26T16:02:46.931Z,102890.72
2023-01-26T16:05:20.118Z,102888.81
2023-01-26T16:07:48.080Z,102886.31
2023-01-26T16:10:20.286Z,102894.03
2023-01-26T16:12:48.926Z,102887.13
2023-01-26T16:15:27.892Z,102889.31
2023-01-26T16:17:54.614Z,102890.69
2023-01-26T16:20:21.245Z,102898.91
2023-01-26T16:22:47.940Z,102892.84
2023-01-26T16:25:24.475Z,102901.38
2023-01-26T16:27:51.117Z,102907.13
2023-01-26T16:30:18.514Z,102906.84
2023-01-26T16:32:45.738Z,102914.53
2023-01-26T16:35:15.221Z,102909.56
2023-01-26T16:37:42.804Z,102913.41
2023-01-26T16:40:11.934Z,102913.69
2023-01-26T16:42:41.476Z,102916.69
2023-01-26T16:45:16.391Z,102920.53
2023-01-26T16:47:43.815Z,102913.94
2023-01-26T16:50:11.580Z,102918.88
2023-01-26T16:52:40.567Z,102918.59
2023-01-26T16:55:12.806Z,102911.19
2023-01-26T16:57:44.701Z,102922.19
2023-01-26T17:00:17.001Z,102922.19
2023-01-26T17:02:44.472Z,102937.03
2023-01-26T17:05:16.801Z,102937.03
2023-01-26T17:07:43.687Z,102937.88
2023-01-26T17:10:11.745Z,102939.53
2023-01-26T17:12:38.562Z,102931.28
2023-01-26T17:15:07.010Z,102943.13
2023-01-26T17:17:33.855Z,102932.13
2023-01-26T17:20:17.490Z,102942.00
2023-01-26T17:22:44.908Z,102934.88
2023-01-26T17:25:13.768Z,102931.00
2023-01-26T17:27:41.997Z,102931.00
2023-01-26T17:30:09.515Z,102932.66
2023-01-26T17:32:36.291Z,102925.50
2023-01-26T17:35:02.959Z,102924.09
2023-01-26T17:37:30.785Z,102934.03
2023-01-26T17:39:57.472Z,102930.44
2023-01-26T17:42:25.468Z,102935.13
2023-01-26T17:44:52.257Z,102929.06
2023-01-26T17:47:18.949Z,102936.22
2023-01-26T17:49:45.593Z,102937.03
2023-01-26T17:52:14.754Z,102938.69
2023-01-26T17:54:41.537Z,102931.53
2023-01-26T17:57:08.917Z,102939.78
2023-01-26T17:59:36.430Z,102926.03
2023-01-26T18:02:03.264Z,102949.72
2023-01-26T18:04:31.470Z,102938.16
2023-01-26T18:06:58.222Z,102935.38
2023-01-26T18:09:25.290Z,102931.81
2023-01-26T18:11:51.936Z,102927.69
2023-01-26T18:14:18.755Z,102935.38
2023-01-26T18:16:45.420Z,102935.63
2023-01-26T18:19:12.165Z,102941.97
2023-01-26T18:21:38.978Z,102926.56
2023-01-26T18:24:06.357Z,102930.97
2023-01-26T18:26:35.619Z,102939.22
2023-01-26T18:29:04.303Z,102946.91
2023-01-26T18:31:33.996Z,102941.41
2023-01-26T18:34:02.170Z,102940.34
2023-01-26T18:36:29.215Z,102952.16
2023-01-26T18:38:58.738Z,102935.91
2023-01-26T18:41:26.934Z,102930.41
2023-01-26T18:43:55.630Z,102936.75
2023-01-26T18:46:23.144Z,102931.81
2023-01-26T18:48:53.024Z,102924.94
2023-01-26T18:51:21.582Z,102929.91
2023-01-26T18:53:48.222Z,102929.94
2023-01-26T18:56:16.929Z,102926.13
2023-01-26T18:58:44.154Z,102927.75
2023-01-26T19:01:13.894Z,102923.91
2023-01-26T19:03:42.219Z,102921.16
2023-01-26T19:06:09.448Z,102918.38
2023-01-26T19:08:36.083Z,102920.00
2023-01-26T19:11:08.811Z,102922.19
2023-01-26T19:13:35.920Z,102934.03
2023-01-26T19:16:03.349Z,102929.06
2023-01-26T19:18:30.034Z,102930.41
2023-01-26T19:21:02.086Z,102922.44
2023-01-26T19:23:29.188Z,102911.69
2023-01-26T19:25:56.132Z,102908.09
2023-01-26T19:28:22.844Z,102916.63
2023-01-26T19:30:49.530Z,102914.41
2023-01-26T19:33:25.706Z,102917.16
2023-01-26T19:35:52.742Z,102920.97
2023-01-26T19:38:20.660Z,102920.97
2023-01-26T19:40:49.306Z,102920.97
2023-01-26T19:43:16.519Z,102919.34
2023-01-26T19:45:48.631Z,102923.72
2023-01-26T19:48:15.681Z,102913.84
2023-01-26T19:50:42.378Z,102924.84
2023-01-26T19:53:09.014Z,102921.53
2023-01-26T19:55:35.934Z,102925.38
2023-01-26T19:58:02.608Z,102922.06
2023-01-26T20:00:29.917Z,102922.56
2023-01-26T20:02:56.660Z,102920.91
2023-01-26T20:05:23.331Z,102919.28
2023-01-26T20:07:49.978Z,102921.44
2023-01-26T20:10:16.951Z,102928.03
2023-01-26T20:12:43.607Z,102936.81
2023-01-26T20:15:10.884Z,102931.56
2023-01-26T20:17:37.686Z,102923.88
2023-01-26T20:20:04.855Z,102920.25
2023-01-26T20:22:33.641Z,102925.94
2023-01-26T20:25:02.776Z,102929.72
2023-01-26T20:27:30.324Z,102928.03
2023-01-26T20:29:56.993Z,102929.09
2023-01-26T20:32:23.986Z,102928.72
2023-01-26T20:34:50.619Z,102941.91
2023-01-26T20:37:17.541Z,102934.78
2023-01-26T20:39:46.983Z,102946.56
2023-01-26T20:42:16.617Z,102940.84
2023-01-26T20:44:43.581Z,102947.41
2023-01-26T20:47:10.404Z,102948.53
2023-01-26T20:49:37.480Z,102938.09
2023-01-26T20:52:08.129Z,102949.91
2023-01-26T20:54:35.700Z,102945.22
2023-01-26T20:57:02.600Z,102930.41
2023-01-26T20:59:30.038Z,102941.41
2023-01-26T21:01:57.215Z,102921.09
2023-01-26T21:04:23.917Z,102934.84
2023-01-26T21:06:50.625Z,102932.09
2023-01-26T21:09:17.533Z,102930.41
2023-01-26T21:11:44.195Z,102932.91
2023-01-26T21:14:12.404Z,102928.25
2023-01-26T21:16:39.690Z,102926.59
2023-01-26T21:19:06.486Z,102934.59
2023-01-26T21:21:33.282Z,102927.16
2023-01-26T21:23:59.964Z,102932.09
2023-01-26T21:26:27.910Z,102933.97
2023-01-26T21:28:56.995Z,102925.19
2023-01-26T21:31:25.728Z,102930.09
2023-01-26T21:33:53.007Z,102938.31
2023-01-26T21:36:22.704Z,102930.91
2023-01-26T21:38:52.209Z,102938.59
2023-01-26T21:41:41.720Z,102938.59
2023-01-26T21:44:11.116Z,102936.09
2023-01-26T21:46:38.578Z,102939.69
2023-01-26T21:49:06.568Z,102933.63
2023-01-26T21:51:51.893Z,102942.13
2023-01-26T21:54:19.101Z,102936.03
2023-01-26T21:56:45.831Z,102931.66
2023-01-26T21:59:17.255Z,102934.13
2023-01-26T22:01:49.398Z,102923.13
2023-01-26T22:04:19.712Z,102925.88
2023-01-26T22:06:46.577Z,102921.50
2023-01-26T22:09:14.792Z,102926.16
2023-01-26T22:11:41.784Z,102925.31
2023-01-26T22:14:14.864Z,102919.25
2023-01-26T22:16:42.292Z,102922.00
2023-01-26T22:19:10.473Z,102916.75
2023-01-26T22:21:37.803Z,102906.03
2023-01-26T22:24:05.284Z,102908.78
2023-01-26T22:26:32.119Z,102907.94
2023-01-26T22:28:59.811Z,102911.53
2023-01-26T22:31:28.936Z,102911.53
2023-01-26T22:33:59.979Z,102913.19
2023-01-26T22:36:27.436Z,102908.22
2023-01-26T22:38:54.694Z,102912.88
2023-01-26T22:41:25.290Z,102907.63
2023-01-26T22:43:56.754Z,102907.91
2023-01-26T22:46:24.873Z,102911.72
2023-01-26T22:48:52.109Z,102914.75
2023-01-26T22:51:24.924Z,102917.19
2023-01-26T22:53:53.569Z,102908.09
2023-01-26T22:56:20.858Z,102925.94
2023-01-26T22:58:58.004Z,102922.28
2023-01-26T23:01:26.453Z,102910.44
2023-01-26T23:03:54.910Z,102904.88
2023-01-26T23:06:22.024Z,102907.84
2023-01-26T23:08:48.798Z,102898.97
2023-01-26T23:11:18.358Z,102907.16
2023-01-26T23:13:46.107Z,102909.00
2023-01-26T23:16:13.129Z,102910.84
2023-01-26T23:18:40.290Z,102910.53
2023-01-26T23:21:07.692Z,102898.41
2023-01-26T23:23:34.653Z,102902.16
2023-01-26T23:26:02.355Z,102900.19
2023-01-26T23:28:34.302Z,102896.56
2023-01-26T23:31:01.559Z,102896.50
2023-01-26T23:33:30.874Z,102906.03
2023-01-26T23:35:58.124Z,102908.19
2023-01-26T23:38:27.677Z,102899.41
2023-01-26T23:40:54.749Z,102898.25
2023-01-26T23:43:21.757Z,102894.34
2023-01-26T23:45:50.061Z,102885.56
2023-01-26T23:48:17.044Z,102889.63
2023-01-26T23:50:43.899Z,102886.56
2023-01-26T23:53:11.063Z,102881.00
2023-01-26T23:55:42.141Z,102879.59
2023-01-26T23:58:09.606Z,102876.50
